Terminal Aerodrome Forecast
Issued by NWS Sterling, VA

Current Version | Previous Version | Text Only | Print | Product List | Glossary Off
Versions: 1 2 3 4 5 6 7 8 9 10 11 12 13 14 15

000
FTUS41 KLWX 281137
TAFMRB
TAF
KMRB 281137Z 2812/0112 30010KT P6SM SCT150
     FM281800 04005KT P6SM SCT150
     FM010400 VRB04KT P6SM OVC050
     FM010800 VRB04KT 3SM -SN OVC025=

USA.gov is the U.S. government's official web portal to all federal, state and local government web resources and services.